createdAt,value
2019-05-12T00:00:32.039Z,902.47
2019-05-12T00:01:32.049Z,901.67
2019-05-12T00:02:32.046Z,900.83
2019-05-12T00:03:32.056Z,899.95
2019-05-12T00:04:32.164Z,899.84
2019-05-12T00:05:32.047Z,899.53
2019-05-12T00:06:32.052Z,899.06
2019-05-12T00:07:32.078Z,898.4
2019-05-12T00:08:32.073Z,897.91
2019-05-12T00:09:32.095Z,897.09
2019-05-12T00:10:32.065Z,896.48
2019-05-12T00:11:32.093Z,895.46
2019-05-12T00:12:32.059Z,895.1
2019-05-12T00:13:32.058Z,895.08
2019-05-12T00:14:32.086Z,894.94
2019-05-12T00:15:32.103Z,894.48
2019-05-12T00:16:32.060Z,893.84
2019-05-12T00:17:38.695Z,893.41
2019-05-12T00:18:32.077Z,892.73
2019-05-12T00:19:32.086Z,892.74
2019-05-12T00:20:32.106Z,892.57
2019-05-12T00:21:32.100Z,892.09
2019-05-12T00:22:32.078Z,891.47
2019-05-12T00:23:32.106Z,890.48
2019-05-12T00:24:32.101Z,889.77
2019-05-12T00:25:32.105Z,888.65
2019-05-12T00:26:32.087Z,888.33
2019-05-12T00:27:32.098Z,887.41
2019-05-12T00:28:32.103Z,887.64
2019-05-12T00:29:32.123Z,886.92
2019-05-12T00:30:32.114Z,888.24
2019-05-12T00:31:32.102Z,887.62
2019-05-12T00:32:32.088Z,887.21
2019-05-12T00:33:32.092Z,887.04
2019-05-12T00:34:32.121Z,886.19
2019-05-12T00:35:32.122Z,885.7
2019-05-12T00:36:32.266Z,885.49
2019-05-12T00:37:32.097Z,884.69
2019-05-12T00:38:32.110Z,884.25
2019-05-12T00:43:01.069Z,883.55
2019-05-12T00:44:01.061Z,883.49
2019-05-12T00:45:01.044Z,883.78
2019-05-12T00:46:01.066Z,883.47
2019-05-12T00:47:01.073Z,883.36
2019-05-12T00:48:01.086Z,882.51
2019-05-12T00:49:01.176Z,882.85
2019-05-12T00:50:01.080Z,882.43
2019-05-12T00:51:01.067Z,881.57
2019-05-12T00:52:01.090Z,881.27
2019-05-12T00:53:01.093Z,880.78
2019-05-12T00:54:01.081Z,880.73
2019-05-12T00:55:01.063Z,880.54
2019-05-12T00:56:01.096Z,880.33
2019-05-12T00:57:01.092Z,880.48
2019-05-12T00:58:01.099Z,880.22
2019-05-12T00:59:01.086Z,880.26
2019-05-12T01:00:01.072Z,880.16
2019-05-12T01:01:01.098Z,879.79
2019-05-12T01:02:01.092Z,879.35
2019-05-12T01:03:01.120Z,878.85
2019-05-12T01:04:01.085Z,878.2
2019-05-12T01:05:01.129Z,878.08
2019-05-12T01:06:01.076Z,878
2019-05-12T01:07:01.137Z,877.15
2019-05-12T01:08:01.110Z,876.38
2019-05-12T01:09:01.152Z,875.9
2019-05-12T01:10:03.133Z,875.92
2019-05-12T01:11:01.104Z,875.92
2019-05-12T01:12:01.104Z,875.85
2019-05-12T01:13:01.141Z,875.74
2019-05-12T01:14:01.090Z,875.67
2019-05-12T01:15:01.136Z,875.23
2019-05-12T01:16:01.179Z,875.19
2019-05-12T01:17:01.122Z,874.97
2019-05-12T01:18:01.094Z,874.9
2019-05-12T01:19:01.095Z,874.22
2019-05-12T01:20:01.128Z,873.89
2019-05-12T01:21:01.128Z,872.98
2019-05-12T01:22:01.116Z,873.44
2019-05-12T01:23:01.101Z,873.03
2019-05-12T01:24:03.417Z,872.39
2019-05-12T01:25:01.135Z,873.54
2019-05-12T01:26:01.139Z,873.08
2019-05-12T01:27:01.145Z,872.83
2019-05-12T01:28:01.109Z,872.29
2019-05-12T01:29:01.166Z,872.53
2019-05-12T01:33:30.942Z,871.52
2019-05-12T01:34:30.950Z,869.87
2019-05-12T01:35:30.942Z,870.1
2019-05-12T01:36:30.920Z,869.47
2019-05-12T01:37:31.279Z,869.22
2019-05-12T01:38:30.934Z,869.01
2019-05-12T01:39:30.940Z,869.02
2019-05-12T01:40:30.960Z,868.6
2019-05-12T01:41:30.936Z,868.8
2019-05-12T01:42:30.925Z,868.97
2019-05-12T01:47:01.262Z,866.84
2019-05-12T01:48:01.227Z,866.58
2019-05-12T01:49:01.255Z,866.66
2019-05-12T01:50:01.280Z,866.06
2019-05-12T01:51:01.286Z,866.45
2019-05-12T01:52:01.233Z,866.99
2019-05-12T01:53:01.239Z,867.27
2019-05-12T01:54:11.548Z,866.7
2019-05-12T01:55:01.254Z,865.7
2019-05-12T01:56:01.266Z,865.16
2019-05-12T01:57:01.295Z,865.72
2019-05-12T01:58:01.272Z,864.34
2019-05-12T01:59:01.243Z,864.39
2019-05-12T02:00:01.265Z,863.92
2019-05-12T02:01:02.905Z,863.78
2019-05-12T02:02:01.256Z,863.54
2019-05-12T02:03:01.286Z,862.84
2019-05-12T02:04:01.249Z,861.94
2019-05-12T02:05:01.259Z,860.94
2019-05-12T02:06:01.262Z,860.91
2019-05-12T02:07:01.257Z,860.07
2019-05-12T02:08:01.257Z,859.91
2019-05-12T02:09:01.261Z,859.68
2019-05-12T02:10:01.302Z,858.84
2019-05-12T02:11:01.265Z,857.82
2019-05-12T02:12:01.569Z,857.02
2019-05-12T02:13:01.268Z,856.15
2019-05-12T02:14:01.296Z,855.44
2019-05-12T02:15:01.261Z,854.77
2019-05-12T02:16:01.274Z,854.65
2019-05-12T02:17:01.300Z,854.18
2019-05-12T02:18:01.322Z,853.84
2019-05-12T02:19:01.291Z,853.3
2019-05-12T02:20:01.295Z,852.95
2019-05-12T02:21:01.300Z,852.57
2019-05-12T02:22:01.289Z,852.19
2019-05-12T02:23:01.548Z,852.35
2019-05-12T02:24:01.307Z,852.15
2019-05-12T02:25:01.295Z,851.86
2019-05-12T02:26:01.280Z,851.51
2019-05-12T02:27:01.300Z,851.04
2019-05-12T02:28:01.286Z,850.88
2019-05-12T02:29:01.293Z,849.97
2019-05-12T02:30:01.302Z,849.41
2019-05-12T02:31:01.286Z,849.61
2019-05-12T02:32:01.316Z,849.66
2019-05-12T02:33:04.913Z,849.03
2019-05-12T02:34:01.326Z,848.62
2019-05-12T02:35:01.322Z,848.26
2019-05-12T02:36:04.304Z,848.06
2019-05-12T02:37:04.926Z,847.84
2019-05-12T02:38:04.390Z,848.04
2019-05-12T02:39:01.365Z,847.23
2019-05-12T02:40:04.428Z,846.87
2019-05-12T02:41:04.480Z,846.67
2019-05-12T02:42:04.877Z,846.43
2019-05-12T02:43:01.346Z,846.39
2019-05-12T02:44:01.346Z,846.08
2019-05-12T02:45:01.330Z,845.24
2019-05-12T02:46:04.514Z,845.9
2019-05-12T02:47:04.339Z,845.33
2019-05-12T02:48:01.317Z,844.76
2019-05-12T02:49:04.352Z,844.43
2019-05-12T02:50:01.338Z,844.04
2019-05-12T02:51:04.591Z,843.93
2019-05-12T02:52:01.351Z,843.57
2019-05-12T02:53:01.340Z,843.09
2019-05-12T02:54:01.336Z,841.95
2019-05-12T02:55:05.573Z,843.16
2019-05-12T02:56:04.567Z,843.21
2019-05-12T02:57:04.138Z,843.78
2019-05-12T02:58:04.386Z,844.18
2019-05-12T02:59:04.765Z,843.82
2019-05-12T03:00:04.575Z,844.18
2019-05-12T03:01:05.000Z,844.46
2019-05-12T03:02:01.350Z,844.96
2019-05-12T03:03:01.376Z,845.6
2019-05-12T03:04:01.545Z,845.84
2019-05-12T03:05:01.459Z,846.2
2019-05-12T03:06:01.358Z,845.65
2019-05-12T03:07:03.024Z,845.26
2019-05-12T03:08:04.447Z,845.59
2019-05-12T03:09:04.434Z,845.21
2019-05-12T03:10:04.489Z,845.26
2019-05-12T03:11:21.264Z,844.92
2019-05-12T03:12:21.186Z,845.36
2019-05-12T03:13:21.184Z,845.83
2019-05-12T03:14:21.199Z,845.82
2019-05-12T03:15:21.200Z,845.82
2019-05-12T03:16:21.224Z,846.6
2019-05-12T03:17:24.754Z,846.78
2019-05-12T03:18:21.229Z,847.02
2019-05-12T03:19:21.204Z,847.03
2019-05-12T03:20:23.936Z,847.36
2019-05-12T03:21:24.160Z,846.85
2019-05-12T03:22:24.418Z,846.27
2019-05-12T03:23:24.009Z,846.81
2019-05-12T03:24:21.217Z,847.13
2019-05-12T03:25:25.918Z,847.72
2019-05-12T03:26:24.198Z,846.97
2019-05-12T03:27:21.190Z,847.82
2019-05-12T03:28:21.197Z,847.88
2019-05-12T03:29:21.211Z,848.43
2019-05-12T03:30:21.253Z,848.88
2019-05-12T03:31:24.734Z,849
2019-05-12T03:32:26.506Z,849.28
2019-05-12T03:33:21.227Z,850.01
2019-05-12T03:34:21.249Z,850.19
2019-05-12T03:35:21.229Z,850.9
2019-05-12T03:36:21.223Z,851.03
2019-05-12T03:37:21.217Z,851.8
2019-05-12T03:38:21.228Z,851.92
2019-05-12T03:39:21.216Z,851.92
2019-05-12T03:40:24.527Z,851.97
2019-05-12T03:41:21.223Z,851.88
2019-05-12T03:42:24.649Z,852.49
2019-05-12T03:43:24.086Z,852.59
2019-05-12T03:44:21.243Z,852.34
2019-05-12T03:45:21.256Z,851.36
2019-05-12T03:46:24.430Z,851.24
2019-05-12T03:47:21.242Z,850.85
2019-05-12T03:48:21.233Z,849.93
2019-05-12T03:49:24.162Z,849.28
2019-05-12T03:50:24.042Z,848.96
2019-05-12T03:51:24.665Z,848.63
2019-05-12T03:52:24.227Z,847.74
2019-05-12T03:53:24.375Z,847
2019-05-12T03:54:23.988Z,846.55
2019-05-12T03:55:31.538Z,846.32
2019-05-12T03:56:21.275Z,846.31
2019-05-12T03:57:21.260Z,846.6
2019-05-12T03:58:21.278Z,846.41
2019-05-12T03:59:21.290Z,845.88
2019-05-12T04:00:24.360Z,845.26
2019-05-12T04:01:21.242Z,844.98
2019-05-12T04:02:21.262Z,844.86
2019-05-12T04:03:24.339Z,845.17
2019-05-12T04:04:24.095Z,845.45
2019-05-12T04:05:24.038Z,845.77
2019-05-12T04:06:24.071Z,845.5
2019-05-12T04:07:24.047Z,845.27
2019-05-12T04:08:24.294Z,845.41
2019-05-12T04:09:24.231Z,845.72
2019-05-12T04:10:24.380Z,845.98
2019-05-12T04:11:21.260Z,845.66
2019-05-12T04:12:21.274Z,845.02
2019-05-12T04:13:21.254Z,845.43
2019-05-12T04:14:21.259Z,845.73
2019-05-12T04:15:21.287Z,845.74
2019-05-12T04:16:24.283Z,845.88
2019-05-12T04:17:24.100Z,846
2019-05-12T04:18:24.514Z,845.73
2019-05-12T04:19:21.294Z,845.61
2019-05-12T04:20:21.288Z,845.61
2019-05-12T04:21:23.991Z,845.7
2019-05-12T04:22:24.576Z,845.97
2019-05-12T04:23:24.391Z,846.11
2019-05-12T04:24:24.584Z,847.06
2019-05-12T04:25:24.635Z,847.23
2019-05-12T04:26:24.363Z,847.79
2019-05-12T04:27:21.290Z,847.86
2019-05-12T04:28:24.208Z,848.22
2019-05-12T04:29:24.659Z,847.82
2019-05-12T04:30:24.608Z,848.17
2019-05-12T04:31:24.352Z,848.35
2019-05-12T04:32:21.305Z,848.11
2019-05-12T04:33:21.322Z,849.05
2019-05-12T04:34:21.315Z,849.22
2019-05-12T04:35:21.298Z,849.44
2019-05-12T04:36:23.991Z,849.58
2019-05-12T04:37:21.308Z,850.84
2019-05-12T04:38:24.563Z,850.88
2019-05-12T04:39:21.302Z,851.59
2019-05-12T04:40:24.481Z,851.78
2019-05-12T04:41:21.320Z,852.42
2019-05-12T04:42:24.809Z,852.03
2019-05-12T04:43:25.044Z,852.67
2019-05-12T04:44:21.315Z,853.49
2019-05-12T04:45:21.333Z,853.6
2019-05-12T04:46:21.337Z,854.23
2019-05-12T04:47:21.322Z,853.99
2019-05-12T04:48:21.687Z,853.72
2019-05-12T04:49:24.535Z,853.19
2019-05-12T04:50:24.121Z,853.02
2019-05-12T04:51:21.336Z,853.02
2019-05-12T04:52:24.499Z,853.88
2019-05-12T04:53:24.761Z,854.08
2019-05-12T04:54:23.819Z,854.45
2019-05-12T04:55:21.340Z,855.14
2019-05-12T04:56:24.643Z,854.75
2019-05-12T04:57:21.661Z,854.76
2019-05-12T04:58:21.355Z,854.78
2019-05-12T04:59:21.351Z,855.86
2019-05-12T05:00:21.334Z,856.28
2019-05-12T05:01:21.347Z,856.8
2019-05-12T05:02:24.444Z,857.21
2019-05-12T05:03:24.406Z,857.96
2019-05-12T05:04:23.634Z,858.47
2019-05-12T05:05:21.324Z,859.18
2019-05-12T05:06:21.332Z,859.52
2019-05-12T05:07:24.099Z,860.42
2019-05-12T05:08:24.021Z,860.62
2019-05-12T05:09:24.258Z,860.5
2019-05-12T05:10:21.359Z,860.59
2019-05-12T05:11:21.350Z,860.63
2019-05-12T05:12:23.627Z,861.17
2019-05-12T05:13:24.163Z,860.54
2019-05-12T05:14:21.368Z,860.25
2019-05-12T05:15:21.375Z,860
2019-05-12T05:16:21.377Z,859.95
2019-05-12T05:17:24.085Z,859.81
2019-05-12T05:18:23.341Z,859.94
2019-05-12T05:19:21.355Z,860.69
2019-05-12T05:20:23.719Z,860.92
2019-05-12T05:21:21.395Z,861.87
2019-05-12T05:22:21.394Z,862.44
2019-05-12T05:23:21.386Z,863.22
2019-05-12T05:24:23.293Z,864.02
2019-05-12T05:25:23.430Z,865.03
2019-05-12T05:26:27.297Z,866.45
2019-05-12T05:27:21.386Z,867.03
2019-05-12T05:28:23.433Z,867.54
2019-05-12T05:29:21.377Z,868.4
2019-05-12T05:30:21.407Z,869.5
2019-05-12T05:31:21.411Z,869.62
2019-05-12T05:32:23.253Z,869.16
2019-05-12T05:33:23.569Z,869.58
2019-05-12T05:34:23.423Z,869.43
2019-05-12T05:35:23.707Z,870.41
2019-05-12T05:36:21.368Z,871.28
2019-05-12T05:37:23.691Z,872.54
2019-05-12T05:38:23.562Z,873.95
2019-05-12T05:39:24.043Z,875.04
2019-05-12T05:40:25.808Z,876.58
2019-05-12T05:41:23.915Z,878.4
2019-05-12T05:42:21.987Z,879.82
2019-05-12T05:43:21.398Z,881.67
2019-05-12T05:44:21.393Z,882.5
2019-05-12T05:45:24.043Z,883.18
2019-05-12T05:46:21.390Z,884.21
2019-05-12T05:47:25.330Z,884.87
2019-05-12T05:48:23.909Z,885.05
2019-05-12T05:49:23.616Z,885.65
2019-05-12T05:50:24.698Z,886.8
2019-05-12T05:51:23.705Z,887.48
2019-05-12T05:52:24.393Z,888.48
2019-05-12T05:53:21.390Z,889.52
2019-05-12T05:54:22.574Z,890.44
2019-05-12T05:55:23.309Z,890.4
2019-05-12T05:56:31.652Z,891.12
2019-05-12T05:57:25.606Z,891.49
2019-05-12T05:58:21.466Z,891.39
2019-05-12T05:59:30.958Z,891.89
2019-05-12T06:00:23.679Z,891.73
2019-05-12T06:01:24.260Z,891.61
2019-05-12T06:02:23.024Z,892.14
2019-05-12T06:03:27.169Z,892.8
2019-05-12T06:04:23.553Z,893.05
2019-05-12T06:05:26.102Z,893.34
2019-05-12T06:06:23.557Z,893.92
2019-05-12T06:07:23.400Z,894.38
2019-05-12T06:08:23.670Z,895.15
2019-05-12T06:09:23.310Z,896.14
2019-05-12T06:10:34.360Z,897.15
2019-05-12T06:11:23.686Z,898.66
2019-05-12T06:12:21.416Z,900.57
2019-05-12T06:13:26.227Z,900.68
2019-05-12T06:14:23.528Z,902.11
2019-05-12T06:15:23.342Z,902.97
2019-05-12T06:16:24.443Z,903.85
2019-05-12T06:17:23.498Z,904.12
2019-05-12T06:18:23.719Z,905.43
2019-05-12T06:19:24.014Z,906.3
2019-05-12T06:20:23.567Z,906.88
2019-05-12T06:21:21.455Z,907.35
2019-05-12T06:22:23.531Z,907.65
2019-05-12T06:23:23.805Z,907.24
2019-05-12T06:24:21.451Z,906.82
2019-05-12T06:25:21.483Z,906.95
2019-05-12T06:26:28.051Z,907.54
2019-05-12T06:27:21.555Z,907.29
2019-05-12T06:28:23.369Z,907.66
2019-05-12T06:29:22.625Z,907.82
2019-05-12T06:30:21.469Z,908.15
2019-05-12T06:31:24.988Z,908.26
2019-05-12T06:32:21.463Z,908.01
2019-05-12T06:33:22.554Z,908.44
2019-05-12T06:34:23.717Z,908.81
2019-05-12T06:35:21.481Z,909.45
2019-05-12T06:36:24.141Z,910.1
2019-05-12T06:37:23.426Z,911.07
2019-05-12T06:38:23.462Z,911.11
2019-05-12T06:39:23.424Z,910.23
2019-05-12T06:40:21.472Z,910.31
2019-05-12T06:41:25.268Z,910.18
2019-05-12T06:42:23.962Z,910.6
2019-05-12T06:43:21.472Z,910.9
2019-05-12T06:44:21.501Z,911.17
2019-05-12T06:45:23.466Z,910.91
2019-05-12T06:46:23.553Z,911.46
2019-05-12T06:47:23.532Z,911.58
2019-05-12T06:48:25.486Z,911.44
2019-05-12T06:49:21.521Z,911.59
2019-05-12T06:50:23.661Z,911.77
2019-05-12T06:51:23.573Z,912.15
2019-05-12T06:52:23.604Z,912.98
2019-05-12T06:53:26.342Z,913.9
2019-05-12T06:54:21.516Z,914.51
2019-05-12T06:55:23.598Z,914.77
2019-05-12T06:56:23.447Z,914.49
2019-05-12T06:57:26.076Z,914.01
2019-05-12T06:58:27.413Z,914.02
2019-05-12T06:59:23.511Z,914.72
2019-05-12T07:00:22.200Z,914.89
2019-05-12T07:01:23.933Z,914.89
2019-05-12T07:02:21.548Z,914.53
2019-05-12T07:03:25.676Z,914.36
2019-05-12T07:04:23.935Z,913.94
2019-05-12T07:05:23.235Z,913.98
2019-05-12T07:06:24.693Z,913.4
2019-05-12T07:07:24.528Z,913.15
2019-05-12T07:08:27.264Z,913.66
2019-05-12T07:09:27.629Z,913.7
2019-05-12T07:10:36.379Z,913.94
2019-05-12T07:11:24.190Z,914.55
2019-05-12T07:12:24.709Z,914.87
2019-05-12T07:13:28.264Z,915.28
2019-05-12T07:14:24.826Z,915.41
2019-05-12T07:15:23.336Z,916.39
2019-05-12T07:16:29.269Z,916.93
2019-05-12T07:17:23.699Z,916.38
2019-05-12T07:18:24.030Z,916.67
2019-05-12T07:19:23.252Z,916.98
2019-05-12T07:20:23.861Z,917.19
2019-05-12T07:21:24.689Z,917.99
2019-05-12T07:22:23.267Z,919.07
2019-05-12T07:23:25.674Z,919.53
2019-05-12T07:24:23.837Z,920.16
2019-05-12T07:25:22.488Z,920.52
2019-05-12T07:26:23.428Z,921.51
2019-05-12T07:27:33.678Z,921.81
2019-05-12T07:28:23.527Z,923.49
2019-05-12T07:29:23.646Z,924.92
2019-05-12T07:30:21.561Z,925.89
2019-05-12T07:31:23.293Z,927.68
2019-05-12T07:32:24.517Z,928.41
2019-05-12T07:33:23.296Z,929.46
2019-05-12T07:34:23.798Z,930.53
2019-05-12T07:35:23.893Z,931.61
2019-05-12T07:36:24.097Z,932.43
2019-05-12T07:37:23.604Z,933.58
2019-05-12T07:38:25.210Z,934.06
2019-05-12T07:39:24.017Z,935.17
2019-05-12T07:40:25.216Z,935.48
2019-05-12T07:41:23.546Z,935.06
2019-05-12T07:42:22.591Z,934.73
2019-05-12T07:43:21.546Z,933.34
2019-05-12T07:44:22.826Z,932.45
2019-05-12T07:45:24.538Z,931.6
2019-05-12T07:46:23.883Z,930.83
2019-05-12T07:47:25.211Z,931.31
2019-05-12T07:48:23.251Z,931.67
2019-05-12T07:49:32.389Z,932.42
2019-05-12T07:50:26.480Z,933.61
2019-05-12T07:51:22.134Z,934.72
2019-05-12T07:52:23.744Z,934.65
2019-05-12T07:53:23.343Z,934.94
2019-05-12T07:54:23.554Z,935.51
2019-05-12T07:55:23.569Z,936.02
2019-05-12T07:56:25.434Z,936.52
2019-05-12T07:57:21.607Z,937.73
2019-05-12T07:58:23.909Z,938.58
2019-05-12T07:59:26.530Z,939.33
2019-05-12T08:00:23.498Z,939.91
2019-05-12T08:01:23.461Z,940.24
2019-05-12T08:02:23.049Z,940.91
2019-05-12T08:03:24.078Z,941.72
2019-05-12T08:04:23.802Z,944.35
2019-05-12T08:05:23.885Z,946.21
2019-05-12T08:06:21.635Z,949.08
2019-05-12T08:07:25.763Z,951.49
2019-05-12T08:08:23.585Z,954.2
2019-05-12T08:09:23.931Z,957.63
2019-05-12T08:10:23.414Z,961.35
2019-05-12T08:11:23.240Z,963.48
2019-05-12T08:12:23.750Z,966.58
2019-05-12T08:13:23.577Z,968.67
2019-05-12T08:14:28.502Z,970.76
2019-05-12T08:15:21.597Z,972.79
2019-05-12T08:16:25.475Z,974.39
2019-05-12T08:17:24.579Z,976.99
2019-05-12T08:18:24.450Z,980.59
2019-05-12T08:19:26.473Z,983.97
2019-05-12T08:20:23.749Z,987.15
2019-05-12T08:21:21.616Z,991.86
2019-05-12T08:22:24.865Z,995.78
2019-05-12T08:23:23.375Z,996.63
2019-05-12T08:24:23.620Z,998.36
2019-05-12T08:25:24.627Z,1000.09
2019-05-12T08:26:23.488Z,1001.86
2019-05-12T08:27:23.383Z,1003.63
2019-05-12T08:28:25.552Z,1005.02
2019-05-12T08:29:24.213Z,1005.86
2019-05-12T08:30:23.933Z,1007.84
2019-05-12T08:31:23.289Z,1009.32
2019-05-12T08:32:23.395Z,1010.53
2019-05-12T08:33:23.765Z,1010.47
2019-05-12T08:34:23.379Z,1009.92
2019-05-12T08:35:26.769Z,1009.37
2019-05-12T08:36:23.579Z,1009.01
2019-05-12T08:37:24.159Z,1009.51
2019-05-12T08:38:21.676Z,1010.35
2019-05-12T08:39:23.533Z,1011.91
2019-05-12T08:40:21.717Z,1012.85
2019-05-12T08:41:23.471Z,1014.36
2019-05-12T08:42:23.776Z,1018.83
2019-05-12T08:43:23.835Z,1024.62
2019-05-12T08:44:24.380Z,1026.28
2019-05-12T08:45:24.888Z,1029.84
2019-05-12T08:46:24.083Z,1033.71
2019-05-12T08:47:23.807Z,1037.57
2019-05-12T08:48:24.776Z,1040
2019-05-12T08:49:23.450Z,1043.39
2019-05-12T08:50:31.260Z,1048.79
2019-05-12T08:51:24.897Z,1050.07
2019-05-12T08:52:23.531Z,1050.51
2019-05-12T08:53:23.445Z,1055.28
2019-05-12T08:54:23.230Z,1058.97
2019-05-12T08:55:22.657Z,1061.55
2019-05-12T08:56:23.881Z,1065.23
2019-05-12T08:57:24.006Z,1067.1
2019-05-12T08:58:31.038Z,1069.72
2019-05-12T08:59:24.813Z,1071.77
2019-05-12T09:00:23.664Z,1073.03
2019-05-12T09:01:26.389Z,1073.78
2019-05-12T09:02:23.843Z,1074.2
2019-05-12T09:03:26.534Z,1075.14
2019-05-12T09:04:21.705Z,1077.57
2019-05-12T09:05:25.737Z,1078.84
2019-05-12T09:06:24.643Z,1078.39
2019-05-12T09:07:23.732Z,1077.95
2019-05-12T09:08:23.787Z,1077.02
2019-05-12T09:09:23.240Z,1075.42
2019-05-12T09:10:23.478Z,1075.39
2019-05-12T09:11:21.691Z,1075.98
2019-05-12T09:12:23.268Z,1076.36
2019-05-12T09:13:23.406Z,1077.14
2019-05-12T09:14:23.722Z,1077.55
2019-05-12T09:15:23.381Z,1079.59
2019-05-12T09:16:24.227Z,1087.92
2019-05-12T09:17:23.223Z,1093.77
2019-05-12T09:18:25.254Z,1100.28
2019-05-12T09:19:24.761Z,1103.44
2019-05-12T09:20:24.098Z,1103.08
2019-05-12T09:21:23.552Z,1108.59
2019-05-12T09:22:34.221Z,1107.68
2019-05-12T09:23:23.630Z,1107.26
2019-05-12T09:24:26.859Z,1107.3
2019-05-12T09:25:23.851Z,1110.78
2019-05-12T09:26:24.863Z,1112.73
2019-05-12T09:27:24.028Z,1110.78
2019-05-12T09:28:23.623Z,1109.35
2019-05-12T09:29:21.859Z,1109.05
2019-05-12T09:30:23.827Z,1109.52
2019-05-12T09:31:25.215Z,1110.86
2019-05-12T09:32:23.542Z,1113.52
2019-05-12T09:33:27.411Z,1117.71
2019-05-12T09:34:23.479Z,1119.92
2019-05-12T09:35:23.560Z,1120.22
2019-05-12T09:36:23.939Z,1120.92
2019-05-12T09:37:23.887Z,1120.99
2019-05-12T09:38:23.798Z,1118.66
2019-05-12T09:39:23.439Z,1116.84
2019-05-12T09:40:22.596Z,1115.9
2019-05-12T09:41:23.825Z,1115.74
2019-05-12T09:42:25.387Z,1114.45
2019-05-12T09:43:23.919Z,1113.14
2019-05-12T09:44:26.236Z,1112.18
2019-05-12T09:45:21.786Z,1112.4
2019-05-12T09:46:23.275Z,1112.32
2019-05-12T09:47:24.844Z,1113.34
2019-05-12T09:48:21.796Z,1113.88
2019-05-12T09:49:22.663Z,1113.62
2019-05-12T09:50:23.318Z,1110.96
2019-05-12T09:51:23.694Z,1109
2019-05-12T09:52:27.053Z,1107.85
2019-05-12T09:53:23.669Z,1107.2
2019-05-12T09:54:25.787Z,1106.15
2019-05-12T09:55:24.291Z,1105.31
2019-05-12T09:56:23.726Z,1106.49
2019-05-12T09:57:23.789Z,1106.95
2019-05-12T09:58:25.150Z,1105.86
2019-05-12T09:59:23.543Z,1109.24
2019-05-12T10:00:23.820Z,1108.35
2019-05-12T10:01:24.031Z,1107.08
2019-05-12T10:02:23.757Z,1105.38
2019-05-12T10:03:24.005Z,1103.93
2019-05-12T10:04:21.801Z,1102.44
2019-05-12T10:05:21.812Z,1101.02
2019-05-12T10:06:21.793Z,1099.92
2019-05-12T10:07:21.821Z,1099.35
2019-05-12T10:08:23.594Z,1100.95
2019-05-12T10:12:56.850Z,1110.7
2019-05-12T10:14:00.151Z,1117.39
2019-05-12T10:14:56.846Z,1122.73
2019-05-12T10:15:58.618Z,1126.91
2019-05-12T10:16:56.845Z,1130.64
2019-05-12T10:18:00.092Z,1133.19
2019-05-12T10:18:56.857Z,1134.33
2019-05-12T10:19:58.189Z,1133.42
2019-05-12T10:20:56.864Z,1132.72
2019-05-12T10:21:59.359Z,1132.44
2019-05-12T10:22:56.845Z,1131.79
2019-05-12T10:24:00.423Z,1131.92
2019-05-12T10:24:58.639Z,1133.03
2019-05-12T10:26:01.314Z,1135.86
2019-05-12T10:26:56.871Z,1137.05
2019-05-12T10:27:56.852Z,1135.93
2019-05-12T10:28:58.452Z,1134.74
2019-05-12T10:29:56.873Z,1133.78
2019-05-12T10:30:57.060Z,1134.77
2019-05-12T10:31:56.860Z,1135.26
2019-05-12T10:32:56.869Z,1134.15
2019-05-12T10:33:58.230Z,1132.72
2019-05-12T10:34:56.859Z,1131.25
2019-05-12T10:36:03.968Z,1132.33
2019-05-12T10:36:56.895Z,1135.56
2019-05-12T10:38:00.069Z,1137.3
2019-05-12T10:38:56.877Z,1137.52
2019-05-12T10:39:56.877Z,1138.15
2019-05-12T10:40:56.992Z,1139.15
2019-05-12T10:41:56.900Z,1139.48
2019-05-12T10:42:56.918Z,1138.57
2019-05-12T10:43:57.823Z,1137.94
2019-05-12T10:44:56.924Z,1140.09
2019-05-12T10:45:56.902Z,1141.5
2019-05-12T10:46:56.876Z,1142.41
2019-05-12T10:47:56.883Z,1142.76
2019-05-12T10:48:56.934Z,1143.18
2019-05-12T10:49:56.979Z,1143.69
2019-05-12T10:50:56.883Z,1144.07
2019-05-12T10:51:56.920Z,1144.45
2019-05-12T10:52:56.884Z,1144.65
2019-05-12T10:54:05.690Z,1144.66
2019-05-12T10:54:57.019Z,1144.69
2019-05-12T10:55:56.927Z,1144.7
2019-05-12T10:56:56.912Z,1144.61
2019-05-12T10:58:01.304Z,1144.64
2019-05-12T10:58:56.917Z,1144.69
2019-05-12T10:59:56.966Z,1144.74
2019-05-12T11:00:58.802Z,1144.68
2019-05-12T11:01:56.936Z,1144.75
2019-05-12T11:03:01.406Z,1144.78
2019-05-12T11:03:56.932Z,1144.84
2019-05-12T11:04:56.937Z,1144.74
2019-05-12T11:06:02.322Z,1144.73
2019-05-12T11:06:56.919Z,1144.73
2019-05-12T11:08:00.168Z,1144.49
2019-05-12T11:08:56.925Z,1144.12
2019-05-12T11:09:56.993Z,1143.58
2019-05-12T11:11:00.875Z,1143.8
2019-05-12T11:11:56.926Z,1144.05
2019-05-12T11:12:59.060Z,1144.35
2019-05-12T11:13:56.962Z,1144.53
2019-05-12T11:15:01.117Z,1144.52
2019-05-12T11:15:56.956Z,1144.47
2019-05-12T11:16:56.946Z,1144.28
2019-05-12T11:17:56.967Z,1144.17
2019-05-12T11:19:00.197Z,1144.02
2019-05-12T11:19:56.965Z,1143.87
2019-05-12T11:20:56.947Z,1143.44
2019-05-12T11:21:56.934Z,1142.7
2019-05-12T11:22:56.944Z,1141.78
2019-05-12T11:23:57.011Z,1141.32
2019-05-12T11:24:56.957Z,1141.48
2019-05-12T11:25:56.962Z,1142.17
2019-05-12T11:26:56.972Z,1143.18
2019-05-12T11:27:56.971Z,1143.46
2019-05-12T11:28:57.043Z,1143.31
2019-05-12T11:29:56.973Z,1143.49
2019-05-12T11:30:57.045Z,1144.11
2019-05-12T11:31:57.046Z,1144.09
2019-05-12T11:32:59.515Z,1143.83
2019-05-12T11:33:56.982Z,1143.48
2019-05-12T11:34:57.002Z,1143.21
2019-05-12T11:35:56.989Z,1142.83
2019-05-12T11:36:56.993Z,1142.21
2019-05-12T11:37:57.052Z,1141.45
2019-05-12T11:43:04.654Z,1142.45
2019-05-12T11:44:04.198Z,1142.12
2019-05-12T11:45:04.205Z,1141.74
2019-05-12T11:46:04.226Z,1141.53
2019-05-12T11:47:04.170Z,1142.94
2019-05-12T11:48:09.884Z,1143.73
2019-05-12T11:49:04.440Z,1143.57
2019-05-12T11:50:09.486Z,1143.03
2019-05-12T11:51:04.197Z,1143.76
2019-05-12T11:52:07.236Z,1144.09
2019-05-12T11:53:04.451Z,1144.55
2019-05-12T11:54:08.828Z,1144.9
2019-05-12T11:55:04.257Z,1144.99
2019-05-12T11:56:07.510Z,1145
2019-05-12T11:57:04.219Z,1144.96
2019-05-12T11:58:06.597Z,1144.73
2019-05-12T11:59:04.215Z,1144.49
2019-05-12T12:00:05.359Z,1144.11
2019-05-12T12:01:08.201Z,1143.63
2019-05-12T12:02:04.251Z,1143.3
2019-05-12T12:03:12.469Z,1143
2019-05-12T12:04:04.265Z,1142.52
2019-05-12T12:05:04.251Z,1143.2
2019-05-12T12:06:04.295Z,1144.02
2019-05-12T12:07:04.288Z,1144.49
2019-05-12T12:08:04.221Z,1144.64
2019-05-12T12:09:09.054Z,1144.54
2019-05-12T12:10:04.244Z,1144.94
2019-05-12T12:11:04.233Z,1144.95
2019-05-12T12:12:07.150Z,1145.03
2019-05-12T12:13:04.250Z,1144.84
2019-05-12T12:14:06.222Z,1144.46
2019-05-12T12:18:39.838Z,1142.7
2019-05-12T12:19:44.521Z,1143.53
2019-05-12T12:20:39.824Z,1144.17
2019-05-12T12:21:40.268Z,1143.66
2019-05-12T12:22:47.280Z,1143.08
2019-05-12T12:23:40.816Z,1142.6
2019-05-12T12:24:39.819Z,1142.32
2019-05-12T12:25:42.942Z,1141.81
2019-05-12T12:26:39.790Z,1141.54
2019-05-12T12:27:39.838Z,1141.02
2019-05-12T12:28:39.806Z,1140.58
2019-05-12T12:29:39.806Z,1140.64
2019-05-12T12:30:39.796Z,1140.96
2019-05-12T12:31:39.848Z,1141.11
2019-05-12T12:32:39.812Z,1142.6
2019-05-12T12:33:40.724Z,1143.09
2019-05-12T12:34:39.827Z,1142.55
2019-05-12T12:35:39.811Z,1142.29
2019-05-12T12:36:39.938Z,1141.86
2019-05-12T12:37:39.802Z,1141.26
2019-05-12T12:38:39.892Z,1140.49
2019-05-12T12:39:39.873Z,1139.84
2019-05-12T12:40:39.803Z,1140.45
2019-05-12T12:41:43.499Z,1139.85
2019-05-12T12:42:44.645Z,1139.13
2019-05-12T12:43:39.825Z,1138.65
2019-05-12T12:44:39.831Z,1138.31
2019-05-12T12:45:40.441Z,1137.99